TimeCDT,TemperatureF,Dew PointF,Humidity,Sea Level PressureIn,VisibilityMPH,Wind Direction,Wind SpeedMPH,Gust SpeedMPH,PrecipitationIn,Events,Conditions,WindDirDegrees,DateUTC
12:15 AM,63.0,55.8,77,29.52,10.0,SSE,20.7,-,N/A,,Clear,150,2013-04-09 05:15:00
12:35 AM,62.4,56.1,80,29.52,10.0,SSE,20.7,27.6,N/A,,Clear,160,2013-04-09 05:35:00
12:55 AM,61.9,56.3,82,29.52,10.0,SSE,19.6,25.3,N/A,,Clear,160,2013-04-09 05:55:00
1:15 AM,61.3,56.3,83,29.52,10.0,SSE,18.4,-,N/A,,Clear,160,2013-04-09 06:15:00
1:35 AM,61.2,56.7,85,29.51,10.0,SSE,18.4,26.5,N/A,,Clear,160,2013-04-09 06:35:00
1:55 AM,61.0,57.0,87,29.52,10.0,SSE,21.9,-,N/A,,Clear,160,2013-04-09 06:55:00
2:15 AM,61.2,57.4,87,29.52,7.0,SSE,21.9,29.9,N/A,,Clear,160,2013-04-09 07:15:00
2:35 AM,61.3,57.6,87,29.52,7.0,South,21.9,27.6,N/A,,Clear,170,2013-04-09 07:35:00
2:55 AM,61.7,57.7,87,29.51,7.0,SSE,20.7,29.9,N/A,,Clear,160,2013-04-09 07:55:00
3:15 AM,61.2,57.6,88,29.51,7.0,SSE,18.4,25.3,N/A,,Clear,160,2013-04-09 08:15:00
3:35 AM,60.6,57.4,89,29.52,7.0,SSE,17.3,23.0,N/A,,Clear,150,2013-04-09 08:35:00
3:55 AM,60.1,57.4,91,29.53,7.0,SSE,18.4,-,N/A,,Clear,160,2013-04-09 08:55:00
4:15 AM,60.1,57.6,91,29.53,7.0,SSE,18.4,24.2,N/A,,Clear,160,2013-04-09 09:15:00
4:35 AM,59.9,57.6,92,29.53,5.0,SSE,19.6,25.3,N/A,,Scattered Clouds,160,2013-04-09 09:35:00
4:55 AM,59.9,57.6,92,29.53,5.0,SSE,21.9,-,N/A,,Scattered Clouds,160,2013-04-09 09:55:00
5:15 AM,59.9,57.7,93,29.53,5.0,South,19.6,-,N/A,,Scattered Clouds,170,2013-04-09 10:15:00
5:35 AM,60.3,57.9,92,29.53,5.0,SSE,20.7,28.8,N/A,,Scattered Clouds,160,2013-04-09 10:35:00
5:55 AM,60.3,57.7,91,29.53,5.0,South,21.9,28.8,N/A,,Mostly Cloudy,170,2013-04-09 10:55:00
6:15 AM,60.4,57.7,91,29.53,5.0,SSE,21.9,27.6,N/A,,Mostly Cloudy,160,2013-04-09 11:15:00
6:35 AM,60.4,57.7,91,29.53,5.0,SSE,20.7,-,N/A,,Mostly Cloudy,160,2013-04-09 11:35:00
6:55 AM,60.3,57.6,91,29.53,5.0,SSE,19.6,26.5,N/A,,Scattered Clouds,160,2013-04-09 11:55:00
7:15 AM,60.3,57.6,91,29.54,5.0,South,19.6,24.2,N/A,,Mostly Cloudy,170,2013-04-09 12:15:00
7:35 AM,60.3,57.6,91,29.55,4.0,South,19.6,-,N/A,,Scattered Clouds,170,2013-04-09 12:35:00
7:55 AM,60.8,57.7,90,29.58,4.0,South,13.8,24.2,N/A,,Scattered Clouds,180,2013-04-09 12:55:00
8:15 AM,50.5,42.4,74,29.61,4.0,North,24.2,35.7,N/A,,Haze,360,2013-04-09 13:15:00
8:35 AM,45.7,36.5,70,29.65,4.0,NNW,25.3,29.9,N/A,,Haze,340,2013-04-09 13:35:00
8:55 AM,43.3,35.2,73,29.67,5.0,NNW,18.4,-,N/A,,Haze,340,2013-04-09 13:55:00
9:15 AM,42.8,33.4,70,29.69,5.0,North,21.9,28.8,N/A,,Haze,350,2013-04-09 14:15:00
9:35 AM,42.4,33.1,69,29.69,5.0,NNW,23.0,29.9,N/A,,Haze,340,2013-04-09 14:35:00
9:55 AM,42.1,32.9,70,29.70,7.0,North,23.0,31.1,N/A,,Overcast,350,2013-04-09 14:55:00
10:15 AM,41.2,32.0,70,29.72,7.0,North,28.8,35.7,N/A,,Overcast,360,2013-04-09 15:15:00
10:35 AM,39.9,31.6,72,29.73,10.0,North,25.3,33.4,N/A,,Overcast,360,2013-04-09 15:35:00
10:55 AM,38.5,30.9,74,29.74,10.0,North,27.6,33.4,N/A,,Overcast,350,2013-04-09 15:55:00
11:15 AM,37.6,30.0,74,29.75,10.0,North,24.2,36.8,N/A,,Overcast,350,2013-04-09 16:15:00
11:35 AM,34.9,26.2,71,29.78,10.0,North,28.8,35.7,N/A,,Overcast,350,2013-04-09 16:35:00
11:55 AM,32.9,24.6,72,29.79,7.0,North,29.9,-,N/A,,Overcast,350,2013-04-09 16:55:00
12:15 PM,33.1,23.9,69,29.80,10.0,North,28.8,36.8,N/A,,Overcast,350,2013-04-09 17:15:00
12:35 PM,32.0,22.6,68,29.80,10.0,North,28.8,36.8,N/A,,Overcast,360,2013-04-09 17:35:00
12:55 PM,32.0,22.1,67,29.81,10.0,North,32.2,41.4,N/A,,Overcast,360,2013-04-09 17:55:00
1:15 PM,31.8,22.1,67,29.81,10.0,North,27.6,36.8,N/A,,Overcast,350,2013-04-09 18:15:00
1:35 PM,31.5,22.1,68,29.82,10.0,North,32.2,42.6,N/A,,Overcast,360,2013-04-09 18:35:00
1:55 PM,31.5,22.1,68,29.81,10.0,North,34.5,40.3,N/A,,Overcast,350,2013-04-09 18:55:00
2:15 PM,30.2,22.1,72,29.81,10.0,North,28.8,39.1,N/A,,Overcast,360,2013-04-09 19:15:00
2:35 PM,30.2,21.6,70,29.82,10.0,North,33.4,40.3,N/A,,Overcast,360,2013-04-09 19:35:00
2:55 PM,30.2,21.4,70,29.82,10.0,North,27.6,36.8,N/A,,Overcast,360,2013-04-09 19:55:00
3:15 PM,29.5,21.6,72,29.82,10.0,North,31.1,36.8,N/A,,Overcast,360,2013-04-09 20:15:00
3:35 PM,29.1,21.0,72,29.83,10.0,North,28.8,39.1,N/A,,Overcast,350,2013-04-09 20:35:00
3:55 PM,29.3,21.0,71,29.83,10.0,North,32.2,39.1,N/A,,Overcast,360,2013-04-09 20:55:00
4:15 PM,28.9,20.8,72,29.85,10.0,North,32.2,39.1,N/A,,Overcast,350,2013-04-09 21:15:00
4:35 PM,28.9,21.0,72,29.85,10.0,North,33.4,40.3,N/A,,Overcast,350,2013-04-09 21:35:00
4:55 PM,28.9,20.8,72,29.87,10.0,North,29.9,41.4,N/A,,Overcast,360,2013-04-09 21:55:00
5:15 PM,30.0,20.3,67,29.85,10.0,North,33.4,41.4,N/A,,Overcast,350,2013-04-09 22:15:00
5:35 PM,30.0,19.6,65,29.86,10.0,North,31.1,39.1,N/A,,Overcast,350,2013-04-09 22:35:00
5:55 PM,30.6,19.4,63,29.85,10.0,North,32.2,39.1,N/A,,Overcast,350,2013-04-09 22:55:00
6:15 PM,29.8,18.7,63,29.87,10.0,North,28.8,36.8,N/A,,Overcast,350,2013-04-09 23:15:00
6:35 PM,30.4,18.3,61,29.88,10.0,North,27.6,41.4,N/A,,Mostly Cloudy,350,2013-04-09 23:35:00
6:55 PM,30.4,18.0,60,29.87,10.0,North,29.9,36.8,N/A,,Mostly Cloudy,360,2013-04-09 23:55:00
7:15 PM,30.0,17.4,59,29.87,10.0,North,31.1,40.3,N/A,,Mostly Cloudy,360,2013-04-10 00:15:00
7:35 PM,28.9,16.3,59,29.82,10.0,North,32.2,44.9,N/A,,Mostly Cloudy,360,2013-04-10 00:35:00
7:55 PM,28.4,16.0,60,29.88,10.0,NNW,33.4,43.7,N/A,,Mostly Cloudy,340,2013-04-10 00:55:00
8:15 PM,28.6,16.3,60,29.93,10.0,North,26.5,34.5,N/A,,Mostly Cloudy,350,2013-04-10 01:15:00
8:35 PM,27.5,15.6,61,29.90,10.0,North,32.2,46.0,N/A,,Mostly Cloudy,350,2013-04-10 01:35:00
8:55 PM,27.3,15.3,61,29.92,10.0,North,27.6,42.6,N/A,,Scattered Clouds,360,2013-04-10 01:55:00
9:15 PM,27.1,14.2,58,29.91,10.0,North,29.9,42.6,N/A,,Mostly Cloudy,360,2013-04-10 02:15:00
9:55 PM,25.7,13.8,61,29.99,10.0,North,32.2,41.4,N/A,,Overcast,360,2013-04-10 02:55:00
10:15 PM,25.2,13.8,62,29.96,7.0,North,36.8,46.0,N/A,,Overcast,360,2013-04-10 03:15:00
10:35 PM,24.6,14.9,67,29.93,5.0,North,32.2,42.6,N/A,,Overcast,360,2013-04-10 03:35:00
10:55 PM,24.3,15.3,69,29.94,5.0,North,36.8,44.9,N/A,,Overcast,360,2013-04-10 03:55:00
11:15 PM,23.9,15.1,69,30.02,10.0,North,25.3,36.8,N/A,,Overcast,360,2013-04-10 04:15:00
11:35 PM,23.5,14.9,70,30.01,5.0,North,25.3,39.1,N/A,Snow-Thunderstorm,Light Thunderstorms and Snow,350,2013-04-10 04:35:00
11:55 PM,23.7,14.9,69,30.01,7.0,North,26.5,35.7,N/A,Snow,Light Snow,360,2013-04-10 04:55:00